»·PEaware :: DAL750 KGCN-KSJC

DAL750 :: KGCN-KSJC

FLIGHT INFORMATION

Flight Status: Arrived
Operator:
Delta Air Lines
More flights by this operator :: More flights under this callsign
Pilot: Christian Kovanen (13941)
Aircraft: BOEING 767-300
(B763)
More flights by this aircraft type
Origin: KGCN Grand Canyon Natl Park
United States
Destination: KSJC Mineta San Jose Intl
United States
More flights between these airports :: More routes between these airports
Route: +PARKS3 PGS PRFUM TUMBE KENNO RUSME RAZRR4
File this flight plan on PilotEdge
Remarks:
Altitude:
(Current/Filed)
38,000ft
Speed:
(Current/Filed)
500kts
Departed: 20-Mar-17 02:02 PM
Arrived: 20-Mar-17 04:11 PM
Distance/Time
Traveled:
478nm/2:08
Distance/Time
To Go:
Arrived

Flight Plot

Page will automatically refresh every two minutes.

Flight plan parsing failed; only flown route is shown


Map Options




Map Legend


Flown Route
Filed Route
Departure Airport
Arrival Airport
Navaid (VOR, NDB)
Fix

Horizontal Profiles

Position Reports

Time Latitude Longitude Heading Altitude Ground
Speed
20-Mar-17 13:31 35.953573 -112.142833 40 6619ft 0kts
20-Mar-17 13:32 35.953573 -112.142833 40 6619ft 0kts
20-Mar-17 13:33 35.953573 -112.142833 40 6619ft 0kts
20-Mar-17 13:34 35.953573 -112.142833 40 6619ft 0kts
20-Mar-17 13:35 35.953573 -112.142833 40 6619ft 0kts
20-Mar-17 13:36 35.953573 -112.142833 40 6618ft 0kts
20-Mar-17 13:37 35.953573 -112.142833 40 6618ft 0kts
20-Mar-17 13:38 35.953573 -112.142833 40 6618ft 0kts
20-Mar-17 13:39 35.953573 -112.142833 40 6618ft 0kts
20-Mar-17 13:40 35.953573 -112.142833 40 6618ft 0kts
20-Mar-17 13:41 35.953573 -112.142833 40 6618ft 0kts
20-Mar-17 13:42 35.953573 -112.142833 40 6618ft 0kts
20-Mar-17 13:43 35.953573 -112.142833 40 6618ft 0kts
20-Mar-17 13:44 35.953573 -112.142833 40 6618ft 0kts
20-Mar-17 13:45 35.953573 -112.142833 40 6618ft 0kts
20-Mar-17 13:46 35.953573 -112.142833 40 6618ft 0kts
20-Mar-17 13:47 35.953573 -112.142833 40 6618ft 0kts
20-Mar-17 13:48 35.953573 -112.142833 40 6618ft 0kts
20-Mar-17 13:49 35.953573 -112.142833 40 6618ft 0kts
20-Mar-17 13:50 35.953573 -112.142833 40 6618ft 0kts
20-Mar-17 13:51 35.953573 -112.142833 40 6618ft 0kts
20-Mar-17 13:52 35.953573 -112.142833 40 6618ft 0kts
20-Mar-17 13:53 35.953573 -112.142833 40 6618ft 0kts
20-Mar-17 13:54 35.953573 -112.142833 40 6618ft 0kts
20-Mar-17 13:55 35.953573 -112.142833 40 6618ft 0kts
20-Mar-17 13:56 35.953573 -112.142833 40 6618ft 0kts
20-Mar-17 13:57 35.953573 -112.142833 40 6618ft 0kts
20-Mar-17 13:58 35.953573 -112.142833 40 6618ft 0kts
20-Mar-17 13:59 35.954465 -112.142457 15 6618ft 10kts
20-Mar-17 14:00 35.957431 -112.139757 40 6618ft 16kts
20-Mar-17 14:01 35.960815 -112.136312 354 6618ft 0kts
20-Mar-17 14:02 35.961073 -112.136440 323 6618ft 6kts
20-Mar-17 14:03 35.951510 -112.147875 221 6658ft 136kts
20-Mar-17 14:05 35.953581 -112.142827 40 6619ft 0kts
20-Mar-17 14:06 35.953581 -112.142827 40 6619ft 0kts
20-Mar-17 14:07 35.953581 -112.142827 40 6619ft 0kts
20-Mar-17 14:08 35.953581 -112.142827 40 6618ft 0kts
20-Mar-17 14:09 35.953581 -112.142827 40 6618ft 0kts
20-Mar-17 14:10 35.953581 -112.142827 40 6618ft 0kts
20-Mar-17 14:11 35.953581 -112.142827 40 6618ft 0kts
20-Mar-17 14:12 35.953581 -112.142827 40 6618ft 0kts
20-Mar-17 14:13 35.953581 -112.142827 40 6618ft 0kts
20-Mar-17 14:16 35.953576 -112.142815 40 6619ft 0kts
20-Mar-17 14:17 35.953576 -112.142815 40 6618ft 0kts
20-Mar-17 14:18 35.953576 -112.142815 40 6618ft 0kts
20-Mar-17 14:19 35.953576 -112.142815 40 6618ft 0kts
20-Mar-17 14:20 35.953576 -112.142815 40 6618ft 0kts
20-Mar-17 14:21 35.953576 -112.142815 40 6618ft 0kts
20-Mar-17 14:22 35.953576 -112.142815 40 6618ft 0kts
20-Mar-17 14:23 35.953576 -112.142815 40 6618ft 0kts
20-Mar-17 14:24 35.953576 -112.142815 40 6618ft 0kts
20-Mar-17 14:25 35.953576 -112.142815 40 6618ft 0kts
20-Mar-17 14:26 35.953576 -112.142815 40 6618ft 0kts
20-Mar-17 14:27 35.953576 -112.142815 40 6618ft 0kts
20-Mar-17 14:28 35.953576 -112.142815 40 6618ft 0kts
20-Mar-17 14:29 35.953649 -112.142748 35 6618ft 1kts
20-Mar-17 14:30 35.955652 -112.141447 35 6618ft 10kts
20-Mar-17 14:31 35.958308 -112.138686 41 6618ft 21kts
20-Mar-17 14:32 35.960793 -112.136309 354 6618ft 0kts
20-Mar-17 14:33 35.960793 -112.136309 354 6618ft 0kts
20-Mar-17 14:34 35.961309 -112.136839 292 6618ft 7kts
20-Mar-17 14:35 35.950849 -112.148401 219 6874ft 142kts
20-Mar-17 14:36 35.916903 -112.196866 265 9310ft 228kts
20-Mar-17 14:37 35.928444 -112.275493 275 12596ft 243kts
20-Mar-17 14:38 35.916256 -112.353210 247 16233ft 242kts
20-Mar-17 14:39 35.893005 -112.432092 249 19538ft 252kts
20-Mar-17 14:40 35.873221 -112.515891 249 22501ft 261kts
20-Mar-17 14:41 35.849608 -112.614968 250 23071ft 344kts
20-Mar-17 14:42 35.819053 -112.744465 250 23062ft 434kts
20-Mar-17 14:43 35.784743 -112.887973 250 24688ft 436kts
20-Mar-17 14:44 35.750182 -113.030881 251 27902ft 448kts
20-Mar-17 14:45 35.714338 -113.178346 252 31153ft 448kts
20-Mar-17 14:46 35.679054 -113.322636 252 34363ft 435kts
20-Mar-17 14:47 35.644517 -113.463111 252 36704ft 429kts
20-Mar-17 14:48 35.607542 -113.601999 249 37832ft 427kts
20-Mar-17 14:49 35.567901 -113.737296 249 37844ft 427kts
20-Mar-17 14:50 35.529073 -113.874180 256 37840ft 428kts
20-Mar-17 14:51 35.545207 -114.017675 293 37849ft 442kts
20-Mar-17 14:52 35.608035 -114.147624 297 37844ft 444kts
20-Mar-17 14:53 35.671476 -114.276904 297 37837ft 444kts
20-Mar-17 14:54 35.735003 -114.406657 297 37772ft 443kts
20-Mar-17 14:55 35.798464 -114.536735 297 37924ft 447kts
20-Mar-17 14:56 35.861683 -114.666747 297 38030ft 444kts
20-Mar-17 14:57 35.925252 -114.796891 296 38029ft 444kts
20-Mar-17 14:58 35.988456 -114.927849 296 38031ft 444kts
20-Mar-17 14:59 36.051063 -115.058137 296 38039ft 440kts
20-Mar-17 15:00 36.112547 -115.186612 296 38039ft 435kts
20-Mar-17 15:01 36.173572 -115.314640 296 38031ft 434kts
20-Mar-17 15:02 36.234582 -115.443109 296 38030ft 434kts
20-Mar-17 15:03 36.295630 -115.572139 296 38043ft 434kts
20-Mar-17 15:04 36.356404 -115.700402 296 38065ft 434kts
20-Mar-17 15:05 36.417077 -115.828963 296 38064ft 434kts
20-Mar-17 15:06 36.477546 -115.958185 296 38065ft 433kts
20-Mar-17 15:07 36.537997 -116.087935 296 38063ft 434kts
20-Mar-17 15:08 36.598089 -116.217413 296 38059ft 433kts
20-Mar-17 15:09 36.658017 -116.347053 296 38062ft 434kts
20-Mar-17 15:10 36.718089 -116.477510 296 38061ft 434kts
20-Mar-17 15:11 36.777842 -116.607785 296 38057ft 433kts
20-Mar-17 15:12 36.850268 -116.725213 309 38076ft 442kts
20-Mar-17 15:13 36.935519 -116.835632 309 38088ft 441kts
20-Mar-17 15:14 37.020170 -116.945805 308 38103ft 442kts
20-Mar-17 15:15 37.105046 -117.056715 307 38102ft 446kts
20-Mar-17 15:16 37.190660 -117.168985 307 38077ft 446kts
20-Mar-17 15:17 37.276119 -117.281435 307 38078ft 446kts
20-Mar-17 15:18 37.368975 -117.386064 313 38073ft 452kts
20-Mar-17 15:19 37.456168 -117.496177 294 38038ft 435kts
20-Mar-17 15:20 37.480318 -117.638800 265 38019ft 416kts
20-Mar-17 15:21 37.473264 -117.780839 261 38001ft 404kts
20-Mar-17 15:22 37.462450 -117.921640 261 38006ft 405kts
20-Mar-17 15:23 37.450992 -118.062169 261 38005ft 404kts
20-Mar-17 15:24 37.439333 -118.202467 261 38003ft 405kts
20-Mar-17 15:25 37.427462 -118.343205 261 38002ft 405kts
20-Mar-17 15:26 37.415465 -118.483407 261 38000ft 404kts
20-Mar-17 15:27 37.403293 -118.623682 261 38024ft 404kts
20-Mar-17 15:28 37.391551 -118.762330 260 38111ft 404kts
20-Mar-17 15:29 37.374335 -118.898512 257 37695ft 369kts
20-Mar-17 15:30 37.357807 -119.019633 256 35953ft 343kts
20-Mar-17 15:31 37.341727 -119.136787 256 34055ft 338kts
20-Mar-17 15:32 37.325771 -119.252332 255 32250ft 336kts
20-Mar-17 15:33 37.309653 -119.368175 255 30449ft 339kts
20-Mar-17 15:34 37.293230 -119.485331 255 28651ft 344kts
20-Mar-17 15:35 37.276456 -119.604103 254 26820ft 350kts
20-Mar-17 15:36 37.259658 -119.724423 254 24774ft 360kts
20-Mar-17 15:37 37.241850 -119.849579 254 24212ft 368kts
20-Mar-17 15:38 37.224617 -119.975950 257 24036ft 371kts
20-Mar-17 15:39 37.211262 -120.102780 256 22697ft 364kts
20-Mar-17 15:40 37.197861 -120.227677 256 21499ft 360kts
20-Mar-17 15:41 37.185604 -120.351389 262 20432ft 360kts
20-Mar-17 15:42 37.168393 -120.466772 238 19432ft 312kts
20-Mar-17 15:43 37.135614 -120.553866 239 18808ft 241kts
20-Mar-17 15:44 37.129811 -120.633942 263 17084ft 239kts
20-Mar-17 15:45 37.131780 -120.715306 262 15281ft 235kts
20-Mar-17 15:46 37.132753 -120.796175 257 13295ft 228kts
20-Mar-17 15:47 37.126356 -120.873836 255 11281ft 223kts
20-Mar-17 15:48 37.125172 -120.950187 290 9962ft 233kts
20-Mar-17 15:49 37.148197 -121.024356 287 9975ft 230kts
20-Mar-17 15:50 37.174347 -121.097626 288 9998ft 229kts
20-Mar-17 15:51 37.200355 -121.170245 288 9997ft 225kts
20-Mar-17 15:52 37.225392 -121.241126 288 8078ft 223kts
20-Mar-17 15:53 37.250434 -121.312745 289 8071ft 224kts
20-Mar-17 15:54 37.275748 -121.383904 289 8026ft 223kts
20-Mar-17 15:55 37.301103 -121.454714 288 8026ft 222kts
20-Mar-17 15:56 37.325586 -121.525814 288 8026ft 222kts
20-Mar-17 15:57 37.349467 -121.595591 288 6660ft 217kts
20-Mar-17 15:58 37.372380 -121.665554 288 6030ft 217kts
20-Mar-17 15:59 37.396146 -121.735530 288 6023ft 219kts
20-Mar-17 16:00 37.419842 -121.806156 289 6018ft 220kts
20-Mar-17 16:01 37.443107 -121.874959 290 5126ft 203kts
20-Mar-17 16:02 37.463747 -121.939638 292 4100ft 196kts
20-Mar-17 16:03 37.498363 -121.990920 313 3821ft 182kts
20-Mar-17 16:04 37.531263 -122.036457 313 2181ft 171kts
20-Mar-17 16:05 37.530592 -122.080513 182 2001ft 154kts
20-Mar-17 16:06 37.489927 -122.067923 149 1998ft 149kts
20-Mar-17 16:07 37.459508 -122.036018 137 1983ft 134kts
20-Mar-17 16:08 37.431811 -122.005774 137 1628ft 122kts
20-Mar-17 16:09 37.408312 -121.979964 136 1013ft 110kts
20-Mar-17 16:10 37.385185 -121.954572 136 467ft 110kts
20-Mar-17 16:11 37.363384 -121.930615 138 74ft 67kts
20-Mar-17 16:12 37.358216 -121.924301 87 73ft 21kts
20-Mar-17 16:13 37.359097 -121.922633 36 73ft 19kts
20-Mar-17 16:14 37.363631 -121.924149 47 73ft 5kts
20-Mar-17 16:15 37.363688 -121.924070 49 73ft 0kts

Navigation Log

Ident Type
Flight plan parsing failed, navigation log unavailable